createdAt,value
2019-04-04T00:00:41.859Z,14.86
2019-04-04T00:03:09.199Z,14.84
2019-04-04T00:05:35.502Z,14.81
2019-04-04T00:08:01.853Z,14.80
2019-04-04T00:10:28.177Z,14.78
2019-04-04T00:12:54.607Z,14.75
2019-04-04T00:15:20.947Z,14.74
2019-04-04T00:17:47.273Z,14.73
2019-04-04T00:20:13.599Z,14.69
2019-04-04T00:22:39.933Z,14.64
2019-04-04T00:25:09.564Z,14.62
2019-04-04T00:27:32.589Z,14.57
2019-04-04T00:29:58.891Z,14.55
2019-04-04T00:32:25.224Z,14.55
2019-04-04T00:34:51.570Z,14.53
2019-04-04T00:37:17.907Z,14.52
2019-04-04T00:39:44.214Z,14.50
2019-04-04T00:42:10.543Z,14.47
2019-04-04T00:44:36.868Z,14.44
2019-04-04T00:47:03.218Z,14.42
2019-04-04T00:49:29.572Z,14.41
2019-04-04T00:51:55.995Z,14.37
2019-04-04T00:54:22.313Z,14.36
2019-04-04T00:56:48.838Z,14.34
2019-04-04T00:59:14.996Z,14.31
2019-04-04T01:01:41.318Z,14.27
2019-04-04T01:04:07.635Z,14.24
2019-04-04T01:06:34.362Z,14.21
2019-04-04T01:09:00.255Z,14.18
2019-04-04T01:11:26.566Z,14.20
2019-04-04T01:13:52.896Z,14.18
2019-04-04T01:16:19.227Z,14.15
2019-04-04T01:18:45.550Z,14.13
2019-04-04T01:21:11.861Z,14.11
2019-04-04T01:23:38.259Z,14.10
2019-04-04T01:26:04.566Z,14.09
2019-04-04T01:28:30.894Z,14.06
2019-04-04T01:30:57.233Z,14.02
2019-04-04T01:33:23.571Z,14.01
2019-04-04T01:35:49.900Z,14.00
2019-04-04T01:38:16.234Z,13.97
2019-04-04T01:40:42.539Z,13.92
2019-04-04T01:43:09.810Z,13.90
2019-04-04T01:45:35.267Z,13.88
2019-04-04T01:48:01.582Z,13.85
2019-04-04T01:50:27.891Z,13.83
2019-04-04T01:52:54.201Z,13.79
2019-04-04T01:55:20.545Z,13.76
2019-04-04T01:57:46.938Z,13.74
2019-04-04T02:00:15.104Z,13.74
2019-04-04T02:02:39.600Z,13.73
2019-04-04T02:05:05.968Z,13.69
2019-04-04T02:07:32.317Z,13.67
2019-04-04T02:09:58.617Z,13.66
2019-04-04T02:12:24.943Z,13.61
2019-04-04T02:14:51.284Z,13.59
2019-04-04T02:17:17.589Z,13.56
2019-04-04T02:19:43.971Z,13.58
2019-04-04T02:22:10.225Z,13.55
2019-04-04T02:24:36.530Z,13.55
2019-04-04T02:27:02.885Z,13.52
2019-04-04T02:29:29.212Z,13.51
2019-04-04T02:31:55.507Z,13.47
2019-04-04T02:34:21.828Z,13.43
2019-04-04T02:36:49.178Z,13.41
2019-04-04T02:39:14.566Z,13.39
2019-04-04T02:41:40.903Z,13.41
2019-04-04T02:44:07.221Z,13.38
2019-04-04T02:46:33.529Z,13.40
2019-04-04T02:48:59.869Z,13.40
2019-04-04T02:51:26.206Z,13.39
2019-04-04T02:53:53.180Z,13.38
2019-04-04T02:56:18.862Z,13.34
2019-04-04T02:58:46.386Z,13.32
2019-04-04T03:01:11.512Z,13.32
2019-04-04T03:03:41.170Z,13.28
2019-04-04T03:06:04.130Z,13.26
2019-04-04T03:08:30.502Z,13.25
2019-04-04T03:10:56.859Z,13.23
2019-04-04T03:13:23.141Z,13.22
2019-04-04T03:15:49.498Z,13.18
2019-04-04T03:18:15.810Z,13.15
2019-04-04T03:20:42.182Z,13.14
2019-04-04T03:23:08.623Z,13.12
2019-04-04T03:25:34.961Z,13.11
2019-04-04T03:28:01.272Z,13.09
2019-04-04T03:30:27.605Z,13.08
2019-04-04T03:32:55.053Z,13.06
2019-04-04T03:35:25.693Z,13.06
2019-04-04T03:37:46.547Z,13.06
2019-04-04T03:40:12.875Z,13.10
2019-04-04T03:42:43.932Z,13.10
2019-04-04T03:45:05.490Z,13.09
2019-04-04T03:47:31.803Z,13.07
2019-04-04T03:49:58.135Z,13.06
2019-04-04T03:52:24.449Z,13.06
2019-04-04T03:54:54.985Z,13.03
2019-04-04T03:57:17.098Z,13.04
2019-04-04T03:59:43.435Z,13.02
2019-04-04T04:02:09.755Z,13.00
2019-04-04T04:04:36.096Z,13.00
2019-04-04T04:07:02.524Z,13.00
2019-04-04T04:09:29.111Z,12.94
2019-04-04T04:11:55.457Z,12.97
2019-04-04T04:14:22.658Z,12.97
2019-04-04T04:16:48.064Z,12.96
2019-04-04T04:19:14.391Z,12.96
2019-04-04T04:21:42.836Z,12.95
2019-04-04T04:24:07.105Z,12.94
2019-04-04T04:26:33.444Z,12.93
2019-04-04T04:28:59.751Z,12.93
2019-04-04T04:31:26.085Z,12.93
2019-04-04T04:33:52.379Z,12.94
2019-04-04T04:36:18.731Z,12.94
2019-04-04T04:38:45.040Z,12.95
2019-04-04T04:41:11.412Z,12.97
2019-04-04T04:43:37.745Z,12.97
2019-04-04T04:46:04.105Z,12.97
2019-04-04T04:48:31.772Z,12.97
2019-04-04T04:50:56.826Z,12.96
2019-04-04T04:53:23.146Z,12.97
2019-04-04T04:55:49.513Z,12.97
2019-04-04T04:58:15.852Z,12.98
2019-04-04T05:00:42.174Z,12.97
2019-04-04T05:03:08.494Z,12.97
2019-04-04T05:05:34.943Z,12.97
2019-04-04T05:08:01.237Z,13.00
2019-04-04T05:10:27.585Z,13.03
2019-04-04T05:12:53.954Z,13.05
2019-04-04T05:15:21.442Z,13.07
2019-04-04T05:17:46.547Z,13.08
2019-04-04T05:20:12.857Z,13.13
2019-04-04T05:22:40.035Z,13.15
2019-04-04T05:25:08.303Z,13.11
2019-04-04T05:27:31.836Z,13.15
2019-04-04T05:29:58.148Z,13.16
2019-04-04T05:32:24.491Z,13.17
2019-04-04T05:34:50.828Z,13.16
2019-04-04T05:37:17.123Z,13.17
2019-04-04T05:39:43.567Z,13.13
2019-04-04T05:42:09.872Z,13.18
2019-04-04T05:44:36.505Z,13.19
2019-04-04T05:47:02.883Z,13.17
2019-04-04T05:49:29.212Z,13.19
2019-04-04T05:51:55.529Z,13.20
2019-04-04T05:54:21.885Z,13.22
2019-04-04T05:56:48.970Z,13.23
2019-04-04T05:59:14.527Z,13.24
2019-04-04T06:01:40.937Z,13.28
2019-04-04T06:04:07.194Z,13.31
2019-04-04T06:06:34.200Z,13.36
2019-04-04T06:08:59.943Z,13.42
2019-04-04T06:11:26.276Z,13.53
2019-04-04T06:13:52.576Z,13.67
2019-04-04T06:16:18.915Z,13.85
2019-04-04T06:18:45.243Z,14.06
2019-04-04T06:21:11.566Z,14.22
2019-04-04T06:23:37.909Z,14.45
2019-04-04T06:26:06.766Z,14.61
2019-04-04T06:28:30.609Z,14.82
2019-04-04T06:30:56.950Z,15.03
2019-04-04T06:33:23.267Z,15.19
2019-04-04T06:35:49.589Z,15.33
2019-04-04T06:38:15.891Z,15.47
2019-04-04T06:40:42.244Z,15.64
2019-04-04T06:43:11.513Z,15.80
2019-04-04T06:45:34.880Z,15.98
2019-04-04T06:48:01.217Z,16.13
2019-04-04T06:50:27.587Z,16.29
2019-04-04T06:52:56.417Z,16.46
2019-04-04T06:55:20.207Z,16.64
2019-04-04T06:57:48.012Z,16.79
2019-04-04T07:00:15.424Z,16.92
2019-04-04T07:02:39.201Z,17.00
2019-04-04T07:05:06.299Z,17.09
2019-04-04T07:07:31.837Z,17.22
2019-04-04T07:09:58.158Z,17.31
2019-04-04T07:12:28.255Z,17.39
2019-04-04T07:14:50.986Z,17.47
2019-04-04T07:17:17.307Z,17.54
2019-04-04T07:19:45.888Z,17.59
2019-04-04T07:22:09.997Z,17.65
2019-04-04T07:24:36.305Z,17.63
2019-04-04T07:27:02.611Z,17.57
2019-04-04T07:29:28.954Z,17.54
2019-04-04T07:31:55.259Z,17.52
2019-04-04T07:34:21.573Z,17.50
2019-04-04T07:36:49.133Z,17.46
2019-04-04T07:39:14.206Z,17.42
2019-04-04T07:41:44.559Z,17.38
2019-04-04T07:44:06.905Z,17.36
2019-04-04T07:46:33.220Z,17.31
2019-04-04T07:48:59.557Z,17.26
2019-04-04T07:51:25.897Z,17.21
2019-04-04T07:53:52.223Z,17.20
2019-04-04T07:56:18.529Z,17.18
2019-04-04T07:58:44.944Z,17.16
2019-04-04T08:01:11.247Z,17.14
2019-04-04T08:03:37.570Z,17.13
2019-04-04T08:06:03.914Z,17.13
2019-04-04T08:08:30.216Z,17.11
2019-04-04T08:10:56.526Z,17.12
2019-04-04T08:13:22.850Z,17.10
2019-04-04T08:15:49.210Z,17.11
2019-04-04T08:18:15.554Z,17.13
2019-04-04T08:20:41.868Z,17.17
2019-04-04T08:23:08.232Z,17.23
2019-04-04T08:25:34.540Z,17.31
2019-04-04T08:28:00.873Z,17.38
2019-04-04T08:30:27.210Z,17.42
2019-04-04T08:32:53.578Z,17.48
2019-04-04T08:35:19.881Z,17.54
2019-04-04T08:37:46.209Z,17.58
2019-04-04T08:40:12.518Z,17.68
2019-04-04T08:42:38.907Z,17.78
2019-04-04T08:45:05.232Z,17.89
2019-04-04T08:47:31.538Z,17.95
2019-04-04T08:49:57.852Z,18.00
2019-04-04T08:52:24.187Z,18.04
2019-04-04T08:54:50.510Z,17.91
2019-04-04T08:57:16.839Z,18.08
2019-04-04T08:59:43.174Z,18.16
2019-04-04T09:02:09.553Z,18.24
2019-04-04T09:04:35.986Z,18.32
2019-04-04T09:07:02.444Z,18.45
2019-04-04T09:09:28.768Z,18.68
2019-04-04T09:11:56.032Z,18.86
2019-04-04T09:14:22.435Z,18.99
2019-04-04T09:16:48.737Z,19.07
2019-04-04T09:19:15.063Z,19.14
2019-04-04T09:21:41.395Z,19.17
2019-04-04T09:24:07.739Z,19.23
2019-04-04T09:26:34.071Z,19.27
2019-04-04T09:29:00.639Z,19.32
2019-04-04T09:31:26.976Z,19.38
2019-04-04T09:33:53.334Z,19.42
2019-04-04T09:36:19.633Z,19.49
2019-04-04T09:38:45.941Z,19.60
2019-04-04T09:41:12.253Z,19.85
2019-04-04T09:43:38.602Z,20.17
2019-04-04T09:46:04.909Z,20.49
2019-04-04T09:48:31.268Z,20.75
2019-04-04T09:50:57.574Z,21.05
2019-04-04T09:53:23.921Z,21.29
2019-04-04T09:55:50.368Z,21.48
2019-04-04T09:58:16.682Z,21.68
2019-04-04T10:00:43.009Z,21.86
2019-04-04T10:03:09.328Z,22.04
2019-04-04T10:05:35.672Z,22.22
2019-04-04T10:08:01.994Z,22.37
2019-04-04T10:10:28.310Z,22.47
2019-04-04T10:12:54.631Z,22.65
2019-04-04T10:15:21.016Z,22.73
2019-04-04T10:17:49.500Z,22.92
2019-04-04T10:20:14.480Z,23.02
2019-04-04T10:22:40.831Z,23.12
2019-04-04T10:25:07.134Z,23.21
2019-04-04T10:27:33.498Z,23.34
2019-04-04T10:29:59.797Z,23.46
2019-04-04T10:32:26.129Z,23.53
2019-04-04T10:34:52.477Z,23.60
2019-04-04T10:37:18.813Z,23.64
2019-04-04T10:39:45.231Z,23.58
2019-04-04T10:42:11.462Z,23.46
2019-04-04T10:44:37.773Z,23.33
2019-04-04T10:47:04.087Z,23.21
2019-04-04T10:49:30.418Z,23.11
2019-04-04T10:51:56.724Z,23.07
2019-04-04T10:54:23.125Z,23.00
2019-04-04T10:56:49.478Z,22.93
2019-04-04T10:59:15.794Z,22.84
2019-04-04T11:01:42.110Z,22.73
2019-04-04T11:04:08.458Z,22.76
2019-04-04T11:06:34.779Z,22.70
2019-04-04T11:09:01.102Z,22.64
2019-04-04T11:11:27.472Z,22.59
2019-04-04T11:13:53.779Z,22.52
2019-04-04T11:16:29.574Z,22.46
2019-04-04T11:18:46.415Z,22.40
2019-04-04T11:21:12.771Z,22.33
2019-04-04T11:23:39.122Z,22.27
2019-04-04T11:26:05.458Z,22.20
2019-04-04T11:28:31.766Z,22.21
2019-04-04T11:30:58.105Z,22.17
2019-04-04T11:33:24.449Z,22.12
2019-04-04T11:35:50.782Z,22.06
2019-04-04T11:38:17.136Z,22.03
2019-04-04T11:40:43.467Z,21.98
2019-04-04T11:43:09.784Z,22.05
2019-04-04T11:45:36.136Z,22.09
2019-04-04T11:48:02.482Z,22.09
2019-04-04T11:50:28.816Z,22.09
2019-04-04T11:52:55.130Z,22.10
2019-04-04T11:55:21.479Z,22.15
2019-04-04T11:57:47.825Z,22.14
2019-04-04T12:00:14.244Z,22.10
2019-04-04T12:02:40.547Z,22.05
2019-04-04T12:05:06.894Z,22.00
2019-04-04T12:07:33.215Z,21.94
2019-04-04T12:10:07.165Z,21.88
2019-04-04T12:12:25.830Z,21.83
2019-04-04T12:14:52.260Z,21.77
2019-04-04T12:17:18.603Z,21.73
2019-04-04T12:19:44.937Z,21.70
2019-04-04T12:22:11.980Z,21.65
2019-04-04T12:24:37.572Z,21.68
2019-04-04T12:27:03.883Z,21.69
2019-04-04T12:29:30.209Z,21.69
2019-04-04T12:31:56.573Z,21.69
2019-04-04T12:34:22.899Z,21.70
2019-04-04T12:36:49.223Z,21.69
2019-04-04T12:39:15.538Z,21.67
2019-04-04T12:41:41.876Z,21.64
2019-04-04T12:44:08.223Z,21.60
2019-04-04T12:46:34.543Z,21.55
2019-04-04T12:49:00.880Z,21.51
2019-04-04T12:51:27.197Z,21.46
2019-04-04T12:53:53.514Z,21.41
2019-04-04T12:56:19.822Z,21.38
2019-04-04T12:58:46.128Z,21.34
2019-04-04T13:01:12.460Z,21.29
2019-04-04T13:03:38.765Z,21.24
2019-04-04T13:06:05.142Z,21.20
2019-04-04T13:08:31.456Z,21.14
2019-04-04T13:10:57.816Z,21.08
2019-04-04T13:13:24.129Z,21.08
2019-04-04T13:15:50.428Z,21.06
2019-04-04T13:18:16.753Z,21.04
2019-04-04T13:20:43.063Z,21.00
2019-04-04T13:23:09.374Z,20.98
2019-04-04T13:25:35.686Z,20.96
2019-04-04T13:28:02.024Z,20.93
2019-04-04T13:30:28.346Z,20.91
2019-04-04T13:32:54.690Z,20.90
2019-04-04T13:35:21.030Z,20.89
2019-04-04T13:37:47.370Z,20.88
2019-04-04T13:40:13.704Z,20.86
2019-04-04T13:42:40.031Z,20.84
2019-04-04T13:45:06.352Z,20.82
2019-04-04T13:47:32.711Z,20.80
2019-04-04T13:49:59.005Z,20.77
2019-04-04T13:52:26.440Z,20.75
2019-04-04T13:54:51.639Z,20.76
2019-04-04T13:57:18.054Z,20.75
2019-04-04T13:59:44.394Z,20.73
2019-04-04T14:02:10.725Z,20.72
2019-04-04T14:04:37.031Z,20.71
2019-04-04T14:07:03.385Z,20.65
2019-04-04T14:09:29.680Z,20.67
2019-04-04T14:11:56.044Z,20.66
2019-04-04T14:14:22.368Z,20.63
2019-04-04T14:16:48.687Z,20.62
2019-04-04T14:19:15.020Z,20.61
2019-04-04T14:21:41.367Z,20.59
2019-04-04T14:24:14.044Z,20.59
2019-04-04T14:26:34.074Z,20.57
2019-04-04T14:29:03.589Z,20.53
2019-04-04T14:31:26.709Z,20.51
2019-04-04T14:33:53.059Z,20.50
2019-04-04T14:36:19.368Z,20.49
2019-04-04T14:38:45.734Z,20.47
2019-04-04T14:41:12.068Z,20.42
2019-04-04T14:43:38.354Z,20.41
2019-04-04T14:46:04.697Z,20.35
2019-04-04T14:48:31.035Z,20.34
2019-04-04T14:50:57.358Z,20.29
2019-04-04T14:53:24.114Z,20.25
2019-04-04T14:55:50.011Z,20.21
2019-04-04T14:58:16.317Z,20.18
2019-04-04T15:00:42.763Z,20.16
2019-04-04T15:03:09.203Z,20.16
2019-04-04T15:05:35.515Z,20.15
2019-04-04T15:08:01.838Z,20.12
2019-04-04T15:10:28.293Z,20.09
2019-04-04T15:12:54.611Z,20.07
2019-04-04T15:15:20.943Z,20.03
2019-04-04T15:17:47.276Z,20.02
2019-04-04T15:20:13.573Z,20.00
2019-04-04T15:22:39.947Z,19.96
2019-04-04T15:25:06.319Z,19.95
2019-04-04T15:27:32.638Z,19.93
2019-04-04T15:29:59.326Z,19.90
2019-04-04T15:32:25.694Z,19.86
2019-04-04T15:34:52.031Z,19.81
2019-04-04T15:37:18.337Z,19.78
2019-04-04T15:39:44.701Z,19.74
2019-04-04T15:42:11.016Z,19.70
2019-04-04T15:44:37.364Z,19.65
2019-04-04T15:47:03.770Z,19.62
2019-04-04T15:49:30.095Z,19.58
2019-04-04T15:51:56.408Z,19.54
2019-04-04T15:54:22.723Z,19.49
2019-04-04T15:56:49.094Z,19.44
2019-04-04T15:59:15.444Z,19.39
2019-04-04T16:01:41.822Z,19.35
2019-04-04T16:04:08.162Z,19.27
2019-04-04T16:06:34.508Z,19.26
2019-04-04T16:09:00.860Z,19.23
2019-04-04T16:11:27.190Z,19.17
2019-04-04T16:13:53.578Z,19.13
2019-04-04T16:16:19.904Z,19.09
2019-04-04T16:18:46.229Z,19.04
2019-04-04T16:21:12.606Z,19.00
2019-04-04T16:23:38.955Z,18.95
2019-04-04T16:26:05.263Z,18.90
2019-04-04T16:28:31.701Z,18.88
2019-04-04T16:30:58.137Z,18.83
2019-04-04T16:33:26.509Z,18.77
2019-04-04T16:35:50.772Z,18.74
2019-04-04T16:38:17.117Z,18.67
2019-04-04T16:40:43.564Z,18.65
2019-04-04T16:43:09.873Z,18.61
2019-04-04T16:45:36.204Z,18.57
2019-04-04T16:48:02.522Z,18.52
2019-04-04T16:50:28.840Z,18.47
2019-04-04T16:52:55.216Z,18.44
2019-04-04T16:55:21.542Z,18.40
2019-04-04T16:57:47.854Z,18.37
2019-04-04T17:00:14.186Z,18.34
2019-04-04T17:02:40.504Z,18.29
2019-04-04T17:05:06.819Z,18.25
2019-04-04T17:07:33.210Z,18.23
2019-04-04T17:09:59.519Z,18.20
2019-04-04T17:12:25.832Z,18.16
2019-04-04T17:14:52.177Z,18.12
2019-04-04T17:17:18.568Z,18.07
2019-04-04T17:19:44.894Z,18.03
2019-04-04T17:22:11.194Z,18.00
2019-04-04T17:24:37.506Z,17.97
2019-04-04T17:27:03.842Z,17.93
2019-04-04T17:29:30.160Z,17.91
2019-04-04T17:31:56.466Z,17.88
2019-04-04T17:34:22.811Z,17.83
2019-04-04T17:36:49.253Z,17.78
2019-04-04T17:39:15.973Z,17.74
2019-04-04T17:41:41.822Z,17.72
2019-04-04T17:44:08.150Z,17.69
2019-04-04T17:46:34.513Z,17.66
2019-04-04T17:49:01.066Z,17.62
2019-04-04T17:51:27.353Z,17.57
2019-04-04T17:53:53.693Z,17.53
2019-04-04T17:56:20.193Z,17.50
2019-04-04T17:58:46.147Z,17.47
2019-04-04T18:01:12.454Z,17.45
2019-04-04T18:03:38.787Z,17.41
2019-04-04T18:06:05.135Z,17.37
2019-04-04T18:08:31.441Z,17.32
2019-04-04T18:10:57.786Z,17.30
2019-04-04T18:13:24.091Z,17.27
2019-04-04T18:15:50.423Z,17.26
2019-04-04T18:18:16.725Z,17.23
2019-04-04T18:20:43.091Z,17.18
2019-04-04T18:23:09.461Z,17.15
2019-04-04T18:25:35.784Z,17.12
2019-04-04T18:28:02.100Z,17.08
2019-04-04T18:30:28.457Z,17.05
2019-04-04T18:32:54.798Z,17.02
2019-04-04T18:35:21.150Z,17.00
2019-04-04T18:37:47.476Z,16.92
2019-04-04T18:40:13.881Z,16.92
2019-04-04T18:42:52.197Z,16.91
2019-04-04T18:45:06.571Z,16.86
2019-04-04T18:47:32.898Z,16.83
2019-04-04T18:49:59.205Z,16.81
2019-04-04T18:52:25.625Z,16.79
2019-04-04T18:54:52.071Z,16.75
2019-04-04T18:57:18.381Z,16.73
2019-04-04T18:59:44.704Z,16.71
2019-04-04T19:02:11.030Z,16.68
2019-04-04T19:04:37.531Z,16.66
2019-04-04T19:07:06.690Z,16.63
2019-04-04T19:09:33.120Z,16.61
2019-04-04T19:11:59.463Z,16.60
2019-04-04T19:14:25.818Z,16.57
2019-04-04T19:16:52.225Z,16.54
2019-04-04T19:19:19.949Z,16.49
2019-04-04T19:21:44.861Z,16.47
2019-04-04T19:24:11.170Z,16.44
2019-04-04T19:26:37.537Z,16.31
2019-04-04T19:29:03.980Z,16.39
2019-04-04T19:31:30.372Z,16.36
2019-04-04T19:33:56.682Z,16.33
2019-04-04T19:36:22.989Z,16.30
2019-04-04T19:38:51.428Z,16.28
2019-04-04T19:41:15.672Z,16.27
2019-04-04T19:43:42.037Z,16.26
2019-04-04T19:46:08.359Z,16.26
2019-04-04T19:48:34.682Z,16.24
2019-04-04T19:51:01.053Z,16.22
2019-04-04T19:53:27.495Z,16.19
2019-04-04T19:55:53.928Z,16.18
2019-04-04T19:58:20.233Z,16.14
2019-04-04T20:00:46.572Z,16.13
2019-04-04T20:03:12.931Z,16.08
2019-04-04T20:05:39.240Z,16.08
2019-04-04T20:08:05.576Z,16.06
2019-04-04T20:10:31.916Z,16.02
2019-04-04T20:12:58.223Z,15.98
2019-04-04T20:15:24.573Z,15.94
2019-04-04T20:17:50.921Z,15.91
2019-04-04T20:20:17.226Z,15.90
2019-04-04T20:22:43.605Z,15.88
2019-04-04T20:25:09.922Z,15.85
2019-04-04T20:27:36.232Z,15.83
2019-04-04T20:30:02.604Z,15.82
2019-04-04T20:32:28.962Z,15.78
2019-04-04T20:34:55.285Z,15.73
2019-04-04T20:37:21.606Z,15.73
2019-04-04T20:39:47.945Z,15.70
2019-04-04T20:42:14.277Z,15.67
2019-04-04T20:44:40.609Z,15.64
2019-04-04T20:47:06.975Z,15.62
2019-04-04T20:49:33.347Z,15.61
2019-04-04T20:51:59.634Z,15.58
2019-04-04T20:54:25.954Z,15.56
2019-04-04T20:56:52.294Z,15.53
2019-04-04T20:59:18.690Z,15.50
2019-04-04T21:01:45.019Z,15.46
2019-04-04T21:04:11.368Z,15.45
2019-04-04T21:06:37.812Z,15.41
2019-04-04T21:09:04.118Z,15.37
2019-04-04T21:11:31.581Z,15.36
2019-04-04T21:13:57.907Z,15.34
2019-04-04T21:16:24.232Z,15.33
2019-04-04T21:18:50.556Z,15.29
2019-04-04T21:21:16.938Z,15.29
2019-04-04T21:23:44.462Z,15.25
2019-04-04T21:26:09.583Z,15.22
2019-04-04T21:28:35.889Z,15.21
2019-04-04T21:31:02.273Z,15.19
2019-04-04T21:33:28.633Z,15.18
2019-04-04T21:35:54.901Z,15.16
2019-04-04T21:38:21.231Z,15.16
2019-04-04T21:40:47.555Z,15.14
2019-04-04T21:43:13.908Z,15.12
2019-04-04T21:45:40.207Z,15.09
2019-04-04T21:48:06.538Z,15.09
2019-04-04T21:50:32.869Z,15.08
2019-04-04T21:52:59.204Z,15.06
2019-04-04T21:55:25.509Z,15.04
2019-04-04T21:57:51.807Z,15.00
2019-04-04T22:00:18.128Z,14.96
2019-04-04T22:02:44.458Z,14.95
2019-04-04T22:05:10.767Z,14.94
2019-04-04T22:07:37.086Z,14.91
2019-04-04T22:10:03.422Z,14.88
2019-04-04T22:12:29.740Z,14.86
2019-04-04T22:14:56.041Z,14.85
2019-04-04T22:17:22.353Z,14.81
2019-04-04T22:19:48.663Z,14.82
2019-04-04T22:22:15.000Z,14.77
2019-04-04T22:24:41.302Z,14.76
2019-04-04T22:27:07.779Z,14.76
2019-04-04T22:29:34.087Z,14.77
2019-04-04T22:32:00.434Z,14.82
2019-04-04T22:34:26.751Z,14.78
2019-04-04T22:36:53.066Z,14.75
2019-04-04T22:39:19.378Z,14.74
2019-04-04T22:41:45.714Z,14.71
2019-04-04T22:44:12.034Z,14.70
2019-04-04T22:46:38.355Z,14.67
2019-04-04T22:49:04.679Z,14.64
2019-04-04T22:51:30.985Z,14.62
2019-04-04T22:53:57.340Z,14.52
2019-04-04T22:56:23.645Z,14.47
2019-04-04T22:58:49.965Z,14.43
2019-04-04T23:01:16.297Z,14.41
2019-04-04T23:03:42.625Z,14.41
2019-04-04T23:06:08.958Z,14.39
2019-04-04T23:08:35.283Z,14.38
2019-04-04T23:11:01.643Z,14.34
2019-04-04T23:13:27.964Z,14.34
2019-04-04T23:15:54.284Z,14.32
2019-04-04T23:18:20.598Z,14.32
2019-04-04T23:20:46.900Z,14.32
2019-04-04T23:23:13.226Z,14.31
2019-04-04T23:25:39.534Z,14.31
2019-04-04T23:28:05.866Z,14.32
2019-04-04T23:30:32.171Z,14.33
2019-04-04T23:32:58.494Z,14.30
2019-04-04T23:35:24.803Z,14.29
2019-04-04T23:37:51.127Z,14.27
2019-04-04T23:40:17.464Z,14.26
2019-04-04T23:42:43.769Z,14.27
2019-04-04T23:45:10.089Z,14.25
2019-04-04T23:47:42.529Z,14.24
2019-04-04T23:50:02.732Z,14.22
2019-04-04T23:52:29.044Z,14.19
2019-04-04T23:54:55.360Z,14.17
2019-04-04T23:57:21.693Z,14.13
2019-04-04T23:59:48.043Z,14.13
